Accueil
METAR-TAF:

METAR-TAF

Aéroports :

Agartala, Inde

latitude: 23-53-24N, longitude: 91-14-32E, altitude: 14 m

Observation

Le bulletin a été fait il y a 11 minutes, à 11:00 UTC
Vent 6 kt de sud/sud-est
Température 30°C
Humidité 84%
Pression 996 hPa
Visibilité: 4500 m
Nuages épars à une hauteur de 1800 ft
Nuages fragmentés à une hauteur de 10000 ft
brume,

METAR: VEAT 231100Z 15006KT 4500 BR SCT018 BKN100 30/27 Q0996 NOSIG

Heure: 16:41 (11:11 UTC)

Prévision

Le bulletin a été fait il y a 3 heures et 11 minutes, à 08:00 UTC
Prévision valable du 23 à 09 UTC au 23 à 18 UTC
Vent 8 kt de sud/sud-est
Visibilité: 4500 m
Nuages épars à une hauteur de 1600 ft
Quelques nuages à une hauteur de 3000 ft, Cumulonimbus.
Nuages fragmentés à une hauteur de 10000 ft
pluie faible, brume,

TAF: VEAT 230800Z 2309/2318 15008KT 4500 -RA BR SCT016 FEW030CB BKN100

Observations et prévisions météorologiques de plus de 4000 aéroports (messages METAR et TAF).

Les stations disponibles sont représentées par des disques jaunes et rouges sur la carte.

Passer la souris dessus pour voir le nom de la station.

Cliquer dessus pour voir les observations et prévisions météorologiques.

Pour changer de carte: cliquez sur les boutons verts avec une croix noire pour zoomer, sur le bouton vert avec un tiret pour effectuer un zoom arrière, ou sur les flèches vertes pour les cartes adjacentes.


METAR-TAF: